sensor_id;sensor_type;location;lat;lon;timestamp;temperature;humidity
9998;DHT22;5038;53.064;8.624;2023-02-26T00:01:40;0.10;99.90
9998;DHT22;5038;53.064;8.624;2023-02-26T00:04:08;0.10;99.90
9998;DHT22;5038;53.064;8.624;2023-02-26T00:06:38;0.10;99.90
9998;DHT22;5038;53.064;8.624;2023-02-26T00:09:21;0.10;99.90
9998;DHT22;5038;53.064;8.624;2023-02-26T00:11:51;0.10;99.90
9998;DHT22;5038;53.064;8.624;2023-02-26T00:14:19;0.10;99.90
9998;DHT22;5038;53.064;8.624;2023-02-26T00:16:54;0.10;99.90
9998;DHT22;5038;53.064;8.624;2023-02-26T00:19:25;0.00;99.90
9998;DHT22;5038;53.064;8.624;2023-02-26T00:21:54;0.10;99.90
9998;DHT22;5038;53.064;8.624;2023-02-26T00:24:22;0.00;99.90
9998;DHT22;5038;53.064;8.624;2023-02-26T00:26:51;0.00;99.90
9998;DHT22;5038;53.064;8.624;2023-02-26T00:29:21;0.00;99.90
9998;DHT22;5038;53.064;8.624;2023-02-26T00:31:49;0.00;99.90
9998;DHT22;5038;53.064;8.624;2023-02-26T00:34:18;0.00;99.90
9998;DHT22;5038;53.064;8.624;2023-02-26T00:36:51;0.00;99.90
9998;DHT22;5038;53.064;8.624;2023-02-26T00:39:32;0.00;99.90
9998;DHT22;5038;53.064;8.624;2023-02-26T00:42:05;0.00;99.90
9998;DHT22;5038;53.064;8.624;2023-02-26T00:44:34;-0.10;99.90
9998;DHT22;5038;53.064;8.624;2023-02-26T00:47:07;-0.10;99.90
9998;DHT22;5038;53.064;8.624;2023-02-26T00:49:46;-0.10;99.90
9998;DHT22;5038;53.064;8.624;2023-02-26T00:52:22;-0.10;99.90
9998;DHT22;5038;53.064;8.624;2023-02-26T00:54:54;-0.10;99.90
9998;DHT22;5038;53.064;8.624;2023-02-26T00:57:24;-0.10;99.90
9998;DHT22;5038;53.064;8.624;2023-02-26T00:59:52;-0.10;99.90
9998;DHT22;5038;53.064;8.624;2023-02-26T01:02:20;-0.20;99.90
9998;DHT22;5038;53.064;8.624;2023-02-26T01:04:49;-0.20;99.90
9998;DHT22;5038;53.064;8.624;2023-02-26T01:07:20;-0.20;99.90
9998;DHT22;5038;53.064;8.624;2023-02-26T01:09:50;-0.20;99.90
9998;DHT22;5038;53.064;8.624;2023-02-26T01:12:19;-0.20;99.90
9998;DHT22;5038;53.064;8.624;2023-02-26T01:14:49;-0.20;99.90
9998;DHT22;5038;53.064;8.624;2023-02-26T01:17:22;-0.30;99.90
9998;DHT22;5038;53.064;8.624;2023-02-26T01:19:53;-0.30;99.90
9998;DHT22;5038;53.064;8.624;2023-02-26T01:22:26;-0.30;99.90
9998;DHT22;5038;53.064;8.624;2023-02-26T01:25:00;-0.30;99.90
9998;DHT22;5038;53.064;8.624;2023-02-26T01:27:29;-0.30;99.90
9998;DHT22;5038;53.064;8.624;2023-02-26T01:30:00;-0.30;99.90
9998;DHT22;5038;53.064;8.624;2023-02-26T01:32:37;-0.30;99.90
9998;DHT22;5038;53.064;8.624;2023-02-26T01:35:20;-0.30;99.90
9998;DHT22;5038;53.064;8.624;2023-02-26T01:37:55;-0.30;99.90
9998;DHT22;5038;53.064;8.624;2023-02-26T01:43:31;-0.30;99.90
9998;DHT22;5038;53.064;8.624;2023-02-26T01:46:08;-0.30;99.90
9998;DHT22;5038;53.064;8.624;2023-02-26T01:48:48;-0.30;99.90
9998;DHT22;5038;53.064;8.624;2023-02-26T01:51:17;-0.40;99.90
9998;DHT22;5038;53.064;8.624;2023-02-26T01:53:46;-0.40;99.90
9998;DHT22;5038;53.064;8.624;2023-02-26T01:56:16;-0.40;99.90
9998;DHT22;5038;53.064;8.624;2023-02-26T01:58:46;-0.40;99.90
9998;DHT22;5038;53.064;8.624;2023-02-26T02:01:16;-0.40;99.90
9998;DHT22;5038;53.064;8.624;2023-02-26T02:03:45;-0.40;99.90
9998;DHT22;5038;53.064;8.624;2023-02-26T02:06:16;-0.40;99.90
9998;DHT22;5038;53.064;8.624;2023-02-26T02:08:45;-0.40;99.90
9998;DHT22;5038;53.064;8.624;2023-02-26T02:11:14;-0.40;99.90
9998;DHT22;5038;53.064;8.624;2023-02-26T02:13:53;-0.40;99.90
9998;DHT22;5038;53.064;8.624;2023-02-26T02:16:31;-0.40;99.90
9998;DHT22;5038;53.064;8.624;2023-02-26T02:19:25;-0.40;99.90
9998;DHT22;5038;53.064;8.624;2023-02-26T02:22:14;-0.40;99.90
9998;DHT22;5038;53.064;8.624;2023-02-26T02:24:56;-0.50;99.90
9998;DHT22;5038;53.064;8.624;2023-02-26T02:27:34;-0.50;99.90
9998;DHT22;5038;53.064;8.624;2023-02-26T02:30:13;-0.50;99.90
9998;DHT22;5038;53.064;8.624;2023-02-26T02:32:51;-0.50;99.90
9998;DHT22;5038;53.064;8.624;2023-02-26T02:35:28;-0.50;99.90
9998;DHT22;5038;53.064;8.624;2023-02-26T02:38:04;-0.50;99.90
9998;DHT22;5038;53.064;8.624;2023-02-26T02:40:36;-0.50;99.90
9998;DHT22;5038;53.064;8.624;2023-02-26T02:43:09;-0.50;99.90
9998;DHT22;5038;53.064;8.624;2023-02-26T02:45:42;-0.50;99.90
9998;DHT22;5038;53.064;8.624;2023-02-26T02:48:16;-0.50;99.90
9998;DHT22;5038;53.064;8.624;2023-02-26T02:50:49;-0.60;99.90
9998;DHT22;5038;53.064;8.624;2023-02-26T02:53:22;-0.50;99.90
9998;DHT22;5038;53.064;8.624;2023-02-26T02:55:54;-0.50;99.90
9998;DHT22;5038;53.064;8.624;2023-02-26T02:58:28;-0.50;99.90
9998;DHT22;5038;53.064;8.624;2023-02-26T03:00:59;-0.60;99.90
9998;DHT22;5038;53.064;8.624;2023-02-26T03:03:34;-0.50;99.90
9998;DHT22;5038;53.064;8.624;2023-02-26T03:06:04;-0.50;99.90
9998;DHT22;5038;53.064;8.624;2023-02-26T03:08:35;-0.50;99.90
9998;DHT22;5038;53.064;8.624;2023-02-26T03:11:04;-0.60;99.90
9998;DHT22;5038;53.064;8.624;2023-02-26T03:13:33;-0.60;99.90
9998;DHT22;5038;53.064;8.624;2023-02-26T03:16:19;-0.60;99.90
9998;DHT22;5038;53.064;8.624;2023-02-26T03:18:59;-0.60;99.90
9998;DHT22;5038;53.064;8.624;2023-02-26T03:21:38;-0.60;99.90
9998;DHT22;5038;53.064;8.624;2023-02-26T03:24:19;-0.60;99.90
9998;DHT22;5038;53.064;8.624;2023-02-26T03:26:56;-0.60;99.90
9998;DHT22;5038;53.064;8.624;2023-02-26T03:29:29;-0.60;99.90
9998;DHT22;5038;53.064;8.624;2023-02-26T03:32:04;-0.60;99.90
9998;DHT22;5038;53.064;8.624;2023-02-26T03:34:39;-0.60;99.90
9998;DHT22;5038;53.064;8.624;2023-02-26T03:37:13;-0.70;99.90
9998;DHT22;5038;53.064;8.624;2023-02-26T03:39:47;-0.60;99.90
9998;DHT22;5038;53.064;8.624;2023-02-26T03:42:21;-0.60;99.90
9998;DHT22;5038;53.064;8.624;2023-02-26T03:44:57;-0.70;99.90
9998;DHT22;5038;53.064;8.624;2023-02-26T03:47:27;-0.70;99.90
9998;DHT22;5038;53.064;8.624;2023-02-26T03:50:03;-0.70;99.90
9998;DHT22;5038;53.064;8.624;2023-02-26T03:52:41;-0.70;99.90
9998;DHT22;5038;53.064;8.624;2023-02-26T03:55:34;-0.70;99.90
9998;DHT22;5038;53.064;8.624;2023-02-26T03:58:20;-0.70;99.90
9998;DHT22;5038;53.064;8.624;2023-02-26T04:01:05;-0.70;99.90
9998;DHT22;5038;53.064;8.624;2023-02-26T04:03:39;-0.70;99.90
9998;DHT22;5038;53.064;8.624;2023-02-26T04:06:10;-0.70;99.90
9998;DHT22;5038;53.064;8.624;2023-02-26T04:08:39;-0.70;99.90
9998;DHT22;5038;53.064;8.624;2023-02-26T04:11:10;-0.70;99.90
9998;DHT22;5038;53.064;8.624;2023-02-26T04:13:38;-0.70;99.90
9998;DHT22;5038;53.064;8.624;2023-02-26T04:16:06;-0.70;99.90
9998;DHT22;5038;53.064;8.624;2023-02-26T04:18:35;-0.70;99.90
9998;DHT22;5038;53.064;8.624;2023-02-26T04:21:06;-0.70;99.90
9998;DHT22;5038;53.064;8.624;2023-02-26T04:23:35;-0.70;99.90
9998;DHT22;5038;53.064;8.624;2023-02-26T04:26:04;-0.70;99.90
9998;DHT22;5038;53.064;8.624;2023-02-26T04:28:34;-0.70;99.90
9998;DHT22;5038;53.064;8.624;2023-02-26T04:31:04;-0.70;99.90
9998;DHT22;5038;53.064;8.624;2023-02-26T04:33:33;-0.70;99.90
9998;DHT22;5038;53.064;8.624;2023-02-26T04:36:01;-0.70;99.90
9998;DHT22;5038;53.064;8.624;2023-02-26T04:38:29;-0.60;99.90
9998;DHT22;5038;53.064;8.624;2023-02-26T04:40:59;-0.60;99.90
9998;DHT22;5038;53.064;8.624;2023-02-26T04:43:27;-0.60;99.90
9998;DHT22;5038;53.064;8.624;2023-02-26T04:46:12;-0.60;99.90
9998;DHT22;5038;53.064;8.624;2023-02-26T04:48:41;-0.70;99.90
9998;DHT22;5038;53.064;8.624;2023-02-26T04:51:09;-0.70;99.90
9998;DHT22;5038;53.064;8.624;2023-02-26T04:53:37;-0.70;99.90
9998;DHT22;5038;53.064;8.624;2023-02-26T04:56:08;-0.60;99.90
9998;DHT22;5038;53.064;8.624;2023-02-26T04:58:36;-0.60;99.90
9998;DHT22;5038;53.064;8.624;2023-02-26T05:01:09;-0.70;99.90
9998;DHT22;5038;53.064;8.624;2023-02-26T05:03:39;-0.60;99.90
9998;DHT22;5038;53.064;8.624;2023-02-26T05:06:08;-0.70;99.90
9998;DHT22;5038;53.064;8.624;2023-02-26T05:08:36;-0.60;99.90
9998;DHT22;5038;53.064;8.624;2023-02-26T05:11:09;-0.70;99.90
9998;DHT22;5038;53.064;8.624;2023-02-26T05:13:38;-0.60;99.90
9998;DHT22;5038;53.064;8.624;2023-02-26T05:16:07;-0.60;99.90
9998;DHT22;5038;53.064;8.624;2023-02-26T05:18:35;-0.70;99.90
9998;DHT22;5038;53.064;8.624;2023-02-26T05:21:04;-0.60;99.90
9998;DHT22;5038;53.064;8.624;2023-02-26T05:23:32;-0.70;99.90
9998;DHT22;5038;53.064;8.624;2023-02-26T05:26:01;-0.70;99.90
9998;DHT22;5038;53.064;8.624;2023-02-26T05:28:30;-0.70;99.90
9998;DHT22;5038;53.064;8.624;2023-02-26T05:31:00;-0.70;99.90
9998;DHT22;5038;53.064;8.624;2023-02-26T05:33:28;-0.70;99.90
9998;DHT22;5038;53.064;8.624;2023-02-26T05:35:56;-0.70;99.90
9998;DHT22;5038;53.064;8.624;2023-02-26T05:38:24;-0.70;99.90
9998;DHT22;5038;53.064;8.624;2023-02-26T05:40:55;-0.70;99.90
9998;DHT22;5038;53.064;8.624;2023-02-26T05:43:23;-0.70;99.90
9998;DHT22;5038;53.064;8.624;2023-02-26T05:45:53;-0.70;99.90
9998;DHT22;5038;53.064;8.624;2023-02-26T05:48:22;-0.80;99.90
9998;DHT22;5038;53.064;8.624;2023-02-26T05:50:51;-0.80;99.90
9998;DHT22;5038;53.064;8.624;2023-02-26T05:53:19;-0.80;99.90
9998;DHT22;5038;53.064;8.624;2023-02-26T05:55:47;-0.80;99.90
9998;DHT22;5038;53.064;8.624;2023-02-26T05:58:16;-0.80;99.90
9998;DHT22;5038;53.064;8.624;2023-02-26T06:00:44;-0.80;99.90
9998;DHT22;5038;53.064;8.624;2023-02-26T06:03:14;-0.80;99.90
9998;DHT22;5038;53.064;8.624;2023-02-26T06:05:42;-0.80;99.90
9998;DHT22;5038;53.064;8.624;2023-02-26T06:08:10;-0.90;99.90
9998;DHT22;5038;53.064;8.624;2023-02-26T06:10:41;-0.90;99.90
9998;DHT22;5038;53.064;8.624;2023-02-26T06:13:09;-0.90;99.90
9998;DHT22;5038;53.064;8.624;2023-02-26T06:15:37;-0.90;99.90
9998;DHT22;5038;53.064;8.624;2023-02-26T06:18:05;-0.90;99.90
9998;DHT22;5038;53.064;8.624;2023-02-26T06:20:35;-0.90;99.90
9998;DHT22;5038;53.064;8.624;2023-02-26T06:23:04;-0.90;99.90
9998;DHT22;5038;53.064;8.624;2023-02-26T06:25:32;-0.90;99.90
9998;DHT22;5038;53.064;8.624;2023-02-26T06:28:00;-0.90;99.90
9998;DHT22;5038;53.064;8.624;2023-02-26T06:30:28;-1.00;99.90
9998;DHT22;5038;53.064;8.624;2023-02-26T06:32:56;-1.00;99.90
9998;DHT22;5038;53.064;8.624;2023-02-26T06:35:24;-1.00;99.90
9998;DHT22;5038;53.064;8.624;2023-02-26T06:37:55;-1.00;99.90
9998;DHT22;5038;53.064;8.624;2023-02-26T06:40:23;-1.00;99.90
9998;DHT22;5038;53.064;8.624;2023-02-26T06:42:51;-1.00;99.90
9998;DHT22;5038;53.064;8.624;2023-02-26T06:45:20;-1.00;99.90
9998;DHT22;5038;53.064;8.624;2023-02-26T06:47:48;-1.00;99.90
9998;DHT22;5038;53.064;8.624;2023-02-26T06:50:16;-1.00;99.90
9998;DHT22;5038;53.064;8.624;2023-02-26T06:52:44;-1.00;99.90
9998;DHT22;5038;53.064;8.624;2023-02-26T06:55:14;-1.10;99.90
9998;DHT22;5038;53.064;8.624;2023-02-26T06:57:42;-1.00;99.90
9998;DHT22;5038;53.064;8.624;2023-02-26T07:00:11;-1.00;99.90
9998;DHT22;5038;53.064;8.624;2023-02-26T07:02:39;-1.10;99.90
9998;DHT22;5038;53.064;8.624;2023-02-26T07:05:08;-1.10;99.90
9998;DHT22;5038;53.064;8.624;2023-02-26T07:07:36;-1.00;99.90
9998;DHT22;5038;53.064;8.624;2023-02-26T07:10:05;-1.10;99.90
9998;DHT22;5038;53.064;8.624;2023-02-26T07:12:35;-1.00;99.90
9998;DHT22;5038;53.064;8.624;2023-02-26T07:15:04;-1.00;99.90
9998;DHT22;5038;53.064;8.624;2023-02-26T07:17:33;-1.00;99.90
9998;DHT22;5038;53.064;8.624;2023-02-26T07:20:01;-1.00;99.90
9998;DHT22;5038;53.064;8.624;2023-02-26T07:22:36;-1.00;99.90
9998;DHT22;5038;53.064;8.624;2023-02-26T07:25:05;-0.90;99.90
9998;DHT22;5038;53.064;8.624;2023-02-26T07:27:35;-0.90;99.90
9998;DHT22;5038;53.064;8.624;2023-02-26T07:30:05;-0.90;99.90
9998;DHT22;5038;53.064;8.624;2023-02-26T07:32:34;-0.80;99.90
9998;DHT22;5038;53.064;8.624;2023-02-26T07:35:02;-0.70;99.90
9998;DHT22;5038;53.064;8.624;2023-02-26T07:37:31;-0.70;99.90
9998;DHT22;5038;53.064;8.624;2023-02-26T07:39:59;-0.70;99.90
9998;DHT22;5038;53.064;8.624;2023-02-26T07:42:28;-0.60;99.90
9998;DHT22;5038;53.064;8.624;2023-02-26T07:44:58;-0.50;99.90
9998;DHT22;5038;53.064;8.624;2023-02-26T07:47:26;-0.50;99.90
9998;DHT22;5038;53.064;8.624;2023-02-26T07:49:56;-0.40;99.90
9998;DHT22;5038;53.064;8.624;2023-02-26T07:52:24;-0.40;99.90
9998;DHT22;5038;53.064;8.624;2023-02-26T07:54:52;-0.30;99.90
9998;DHT22;5038;53.064;8.624;2023-02-26T07:57:21;-0.20;99.90
9998;DHT22;5038;53.064;8.624;2023-02-26T07:59:49;-0.20;99.90
9998;DHT22;5038;53.064;8.624;2023-02-26T08:02:19;-0.10;99.90
9998;DHT22;5038;53.064;8.624;2023-02-26T08:04:49;0.00;99.90
9998;DHT22;5038;53.064;8.624;2023-02-26T08:07:17;0.20;99.90
9998;DHT22;5038;53.064;8.624;2023-02-26T08:09:45;0.30;99.90
9998;DHT22;5038;53.064;8.624;2023-02-26T08:12:14;0.40;99.90
9998;DHT22;5038;53.064;8.624;2023-02-26T08:14:42;0.50;99.90
9998;DHT22;5038;53.064;8.624;2023-02-26T08:17:10;0.60;99.90
9998;DHT22;5038;53.064;8.624;2023-02-26T08:19:39;0.70;99.90
9998;DHT22;5038;53.064;8.624;2023-02-26T08:22:08;0.90;99.90
9998;DHT22;5038;53.064;8.624;2023-02-26T08:24:36;1.00;99.90
9998;DHT22;5038;53.064;8.624;2023-02-26T08:27:05;1.20;99.90
9998;DHT22;5038;53.064;8.624;2023-02-26T08:29:33;1.30;99.90
9998;DHT22;5038;53.064;8.624;2023-02-26T08:32:01;1.40;99.90
9998;DHT22;5038;53.064;8.624;2023-02-26T08:34:31;1.50;99.90
9998;DHT22;5038;53.064;8.624;2023-02-26T08:37:00;1.60;99.90
9998;DHT22;5038;53.064;8.624;2023-02-26T08:39:28;1.70;99.90
9998;DHT22;5038;53.064;8.624;2023-02-26T08:41:59;1.80;99.90
9998;DHT22;5038;53.064;8.624;2023-02-26T08:44:27;1.90;99.90
9998;DHT22;5038;53.064;8.624;2023-02-26T08:46:56;2.00;99.90
9998;DHT22;5038;53.064;8.624;2023-02-26T08:49:24;2.00;99.90
9998;DHT22;5038;53.064;8.624;2023-02-26T08:51:52;2.00;99.90
9998;DHT22;5038;53.064;8.624;2023-02-26T08:54:22;2.10;99.90
9998;DHT22;5038;53.064;8.624;2023-02-26T08:56:51;2.10;99.90
9998;DHT22;5038;53.064;8.624;2023-02-26T08:59:21;2.10;99.90
9998;DHT22;5038;53.064;8.624;2023-02-26T09:01:49;2.10;99.90
9998;DHT22;5038;53.064;8.624;2023-02-26T09:04:18;2.20;99.90
9998;DHT22;5038;53.064;8.624;2023-02-26T09:06:46;2.20;99.90
9998;DHT22;5038;53.064;8.624;2023-02-26T09:09:14;2.20;99.90
9998;DHT22;5038;53.064;8.624;2023-02-26T09:11:44;2.20;99.90
9998;DHT22;5038;53.064;8.624;2023-02-26T09:14:12;2.30;99.90
9998;DHT22;5038;53.064;8.624;2023-02-26T09:16:40;2.30;99.90
9998;DHT22;5038;53.064;8.624;2023-02-26T09:19:09;2.30;99.90
9998;DHT22;5038;53.064;8.624;2023-02-26T09:21:37;2.40;99.90
9998;DHT22;5038;53.064;8.624;2023-02-26T09:24:06;2.40;99.90
9998;DHT22;5038;53.064;8.624;2023-02-26T09:26:34;2.50;99.90
9998;DHT22;5038;53.064;8.624;2023-02-26T09:29:06;2.50;99.90
9998;DHT22;5038;53.064;8.624;2023-02-26T09:31:34;2.50;99.90
9998;DHT22;5038;53.064;8.624;2023-02-26T09:34:02;2.60;99.90
9998;DHT22;5038;53.064;8.624;2023-02-26T09:36:31;2.60;99.90
9998;DHT22;5038;53.064;8.624;2023-02-26T09:38:59;2.70;99.90
9998;DHT22;5038;53.064;8.624;2023-02-26T09:41:30;2.70;99.90
9998;DHT22;5038;53.064;8.624;2023-02-26T09:44:10;2.70;99.90
9998;DHT22;5038;53.064;8.624;2023-02-26T09:46:47;2.90;99.90
9998;DHT22;5038;53.064;8.624;2023-02-26T09:49:24;2.90;99.90
9998;DHT22;5038;53.064;8.624;2023-02-26T09:51:59;2.90;99.90
9998;DHT22;5038;53.064;8.624;2023-02-26T09:54:31;3.00;99.90
9998;DHT22;5038;53.064;8.624;2023-02-26T09:57:02;3.00;99.90
9998;DHT22;5038;53.064;8.624;2023-02-26T09:59:32;3.00;99.90
9998;DHT22;5038;53.064;8.624;2023-02-26T10:02:04;3.10;99.90
9998;DHT22;5038;53.064;8.624;2023-02-26T10:04:48;3.10;99.90
9998;DHT22;5038;53.064;8.624;2023-02-26T10:07:25;3.10;99.90
9998;DHT22;5038;53.064;8.624;2023-02-26T10:10:06;3.20;99.90
9998;DHT22;5038;53.064;8.624;2023-02-26T10:12:39;3.20;99.90
9998;DHT22;5038;53.064;8.624;2023-02-26T10:15:13;3.20;99.90
9998;DHT22;5038;53.064;8.624;2023-02-26T10:17:52;3.20;99.90
9998;DHT22;5038;53.064;8.624;2023-02-26T10:20:28;3.30;99.90
9998;DHT22;5038;53.064;8.624;2023-02-26T10:23:01;3.30;99.90
9998;DHT22;5038;53.064;8.624;2023-02-26T10:25:39;3.30;99.90
9998;DHT22;5038;53.064;8.624;2023-02-26T10:28:20;3.40;99.90
9998;DHT22;5038;53.064;8.624;2023-02-26T10:30:57;3.40;99.90
9998;DHT22;5038;53.064;8.624;2023-02-26T10:33:37;3.50;99.90
9998;DHT22;5038;53.064;8.624;2023-02-26T10:36:13;3.50;99.90
9998;DHT22;5038;53.064;8.624;2023-02-26T10:38:48;3.50;99.90
9998;DHT22;5038;53.064;8.624;2023-02-26T10:41:19;3.50;99.90
9998;DHT22;5038;53.064;8.624;2023-02-26T10:43:57;3.60;99.90
9998;DHT22;5038;53.064;8.624;2023-02-26T10:46:35;3.60;99.90
9998;DHT22;5038;53.064;8.624;2023-02-26T10:49:19;3.70;99.90
9998;DHT22;5038;53.064;8.624;2023-02-26T10:51:49;3.70;99.90
9998;DHT22;5038;53.064;8.624;2023-02-26T10:54:20;3.80;99.90
9998;DHT22;5038;53.064;8.624;2023-02-26T10:56:50;3.90;99.90
9998;DHT22;5038;53.064;8.624;2023-02-26T10:59:18;3.90;99.90
9998;DHT22;5038;53.064;8.624;2023-02-26T11:01:49;3.90;99.90
9998;DHT22;5038;53.064;8.624;2023-02-26T11:04:21;4.00;99.90
9998;DHT22;5038;53.064;8.624;2023-02-26T11:06:52;4.00;99.90
9998;DHT22;5038;53.064;8.624;2023-02-26T11:09:24;4.10;99.90
9998;DHT22;5038;53.064;8.624;2023-02-26T11:11:54;4.10;99.90
9998;DHT22;5038;53.064;8.624;2023-02-26T11:14:24;4.10;99.90
9998;DHT22;5038;53.064;8.624;2023-02-26T11:17:00;4.20;99.90
9998;DHT22;5038;53.064;8.624;2023-02-26T11:19:30;4.20;99.90
9998;DHT22;5038;53.064;8.624;2023-02-26T11:22:01;4.30;99.90
9998;DHT22;5038;53.064;8.624;2023-02-26T11:24:32;4.40;99.90
9998;DHT22;5038;53.064;8.624;2023-02-26T11:27:03;4.50;99.90
9998;DHT22;5038;53.064;8.624;2023-02-26T11:29:36;4.50;99.90
9998;DHT22;5038;53.064;8.624;2023-02-26T11:32:15;4.60;99.90
9998;DHT22;5038;53.064;8.624;2023-02-26T11:34:46;4.70;99.90
9998;DHT22;5038;53.064;8.624;2023-02-26T11:37:17;4.70;99.90
9998;DHT22;5038;53.064;8.624;2023-02-26T11:39:46;4.70;99.90
9998;DHT22;5038;53.064;8.624;2023-02-26T11:42:15;4.80;99.90
9998;DHT22;5038;53.064;8.624;2023-02-26T11:44:45;4.80;99.90
9998;DHT22;5038;53.064;8.624;2023-02-26T11:47:18;4.90;99.90
9998;DHT22;5038;53.064;8.624;2023-02-26T11:49:50;4.90;99.90
9998;DHT22;5038;53.064;8.624;2023-02-26T11:52:22;4.90;99.90
9998;DHT22;5038;53.064;8.624;2023-02-26T11:54:58;4.90;99.90
9998;DHT22;5038;53.064;8.624;2023-02-26T11:57:28;4.80;99.90
9998;DHT22;5038;53.064;8.624;2023-02-26T11:59:58;4.80;99.90
9998;DHT22;5038;53.064;8.624;2023-02-26T12:02:32;4.70;99.90
9998;DHT22;5038;53.064;8.624;2023-02-26T12:05:04;4.60;99.90
9998;DHT22;5038;53.064;8.624;2023-02-26T12:07:32;4.60;99.90
9998;DHT22;5038;53.064;8.624;2023-02-26T12:10:01;4.60;99.90
9998;DHT22;5038;53.064;8.624;2023-02-26T12:12:46;4.70;99.90
9998;DHT22;5038;53.064;8.624;2023-02-26T12:15:31;4.70;99.90
9998;DHT22;5038;53.064;8.624;2023-02-26T12:18:27;4.70;99.90
9998;DHT22;5038;53.064;8.624;2023-02-26T12:21:07;4.80;99.90
9998;DHT22;5038;53.064;8.624;2023-02-26T12:24:18;4.80;99.90
9998;DHT22;5038;53.064;8.624;2023-02-26T12:26:59;4.90;99.90
9998;DHT22;5038;53.064;8.624;2023-02-26T12:29:45;5.00;99.90
9998;DHT22;5038;53.064;8.624;2023-02-26T12:32:28;5.00;99.90
9998;DHT22;5038;53.064;8.624;2023-02-26T12:35:16;5.00;99.90
9998;DHT22;5038;53.064;8.624;2023-02-26T12:37:55;5.10;99.90
9998;DHT22;5038;53.064;8.624;2023-02-26T12:43:38;5.10;99.90
9998;DHT22;5038;53.064;8.624;2023-02-26T12:46:21;5.10;99.90
9998;DHT22;5038;53.064;8.624;2023-02-26T12:49:16;5.10;99.90
9998;DHT22;5038;53.064;8.624;2023-02-26T12:52:03;5.10;99.90
9998;DHT22;5038;53.064;8.624;2023-02-26T12:54:48;5.10;99.90
9998;DHT22;5038;53.064;8.624;2023-02-26T13:00:40;5.10;99.90
9998;DHT22;5038;53.064;8.624;2023-02-26T13:03:39;5.10;99.90
9998;DHT22;5038;53.064;8.624;2023-02-26T13:09:25;5.20;99.90
9998;DHT22;5038;53.064;8.624;2023-02-26T13:12:04;5.30;99.90
9998;DHT22;5038;53.064;8.624;2023-02-26T13:14:44;5.30;99.90
9998;DHT22;5038;53.064;8.624;2023-02-26T13:17:23;5.40;99.90
9998;DHT22;5038;53.064;8.624;2023-02-26T13:19:56;5.40;99.90
9998;DHT22;5038;53.064;8.624;2023-02-26T13:22:29;5.50;99.90
9998;DHT22;5038;53.064;8.624;2023-02-26T13:25:01;5.50;99.90
9998;DHT22;5038;53.064;8.624;2023-02-26T13:27:34;5.60;99.90
9998;DHT22;5038;53.064;8.624;2023-02-26T13:30:15;5.60;99.90
9998;DHT22;5038;53.064;8.624;2023-02-26T13:32:46;5.70;99.90
9998;DHT22;5038;53.064;8.624;2023-02-26T13:35:19;5.70;99.90
9998;DHT22;5038;53.064;8.624;2023-02-26T13:37:50;5.60;99.90
9998;DHT22;5038;53.064;8.624;2023-02-26T13:40:45;5.60;99.90
9998;DHT22;5038;53.064;8.624;2023-02-26T13:43:28;5.50;99.90
9998;DHT22;5038;53.064;8.624;2023-02-26T13:46:10;5.50;99.90
9998;DHT22;5038;53.064;8.624;2023-02-26T13:48:47;5.50;99.90
9998;DHT22;5038;53.064;8.624;2023-02-26T13:51:28;5.60;99.90
9998;DHT22;5038;53.064;8.624;2023-02-26T13:53:59;5.70;99.90
9998;DHT22;5038;53.064;8.624;2023-02-26T13:57:06;5.80;99.90
9998;DHT22;5038;53.064;8.624;2023-02-26T13:59:44;5.90;99.90
9998;DHT22;5038;53.064;8.624;2023-02-26T14:02:36;5.90;99.90
9998;DHT22;5038;53.064;8.624;2023-02-26T14:05:25;6.00;99.90
9998;DHT22;5038;53.064;8.624;2023-02-26T14:08:19;6.00;99.90
9998;DHT22;5038;53.064;8.624;2023-02-26T14:10:55;6.10;99.90
9998;DHT22;5038;53.064;8.624;2023-02-26T14:13:34;6.00;99.90
9998;DHT22;5038;53.064;8.624;2023-02-26T14:16:10;6.10;99.90
9998;DHT22;5038;53.064;8.624;2023-02-26T14:18:42;6.10;99.90
9998;DHT22;5038;53.064;8.624;2023-02-26T14:21:47;6.10;99.90
9998;DHT22;5038;53.064;8.624;2023-02-26T14:24:20;6.20;99.90
9998;DHT22;5038;53.064;8.624;2023-02-26T14:26:51;6.10;99.90
9998;DHT22;5038;53.064;8.624;2023-02-26T14:29:39;6.10;99.90
9998;DHT22;5038;53.064;8.624;2023-02-26T14:32:14;6.00;99.90
9998;DHT22;5038;53.064;8.624;2023-02-26T14:34:48;6.00;99.90
9998;DHT22;5038;53.064;8.624;2023-02-26T14:37:20;5.90;99.90
9998;DHT22;5038;53.064;8.624;2023-02-26T14:39:54;5.90;99.90
9998;DHT22;5038;53.064;8.624;2023-02-26T14:42:29;6.00;99.90
9998;DHT22;5038;53.064;8.624;2023-02-26T14:45:08;6.10;99.90
9998;DHT22;5038;53.064;8.624;2023-02-26T14:47:37;6.10;99.90
9998;DHT22;5038;53.064;8.624;2023-02-26T14:50:06;6.20;99.90
9998;DHT22;5038;53.064;8.624;2023-02-26T14:53:06;6.20;99.90
9998;DHT22;5038;53.064;8.624;2023-02-26T14:55:46;6.30;99.90
9998;DHT22;5038;53.064;8.624;2023-02-26T14:58:29;6.30;99.90
9998;DHT22;5038;53.064;8.624;2023-02-26T15:01:07;6.30;99.90
9998;DHT22;5038;53.064;8.624;2023-02-26T15:04:11;6.20;99.90
9998;DHT22;5038;53.064;8.624;2023-02-26T15:06:53;6.20;99.90
9998;DHT22;5038;53.064;8.624;2023-02-26T15:09:28;6.00;99.90
9998;DHT22;5038;53.064;8.624;2023-02-26T15:12:09;5.90;99.90
9998;DHT22;5038;53.064;8.624;2023-02-26T15:15:02;5.80;99.90
9998;DHT22;5038;53.064;8.624;2023-02-26T15:17:50;5.80;99.90
9998;DHT22;5038;53.064;8.624;2023-02-26T15:20:26;5.70;99.90
9998;DHT22;5038;53.064;8.624;2023-02-26T15:23:09;5.60;99.90
9998;DHT22;5038;53.064;8.624;2023-02-26T15:25:41;5.60;99.90
9998;DHT22;5038;53.064;8.624;2023-02-26T15:28:21;5.50;99.90
9998;DHT22;5038;53.064;8.624;2023-02-26T15:30:52;5.50;99.90
9998;DHT22;5038;53.064;8.624;2023-02-26T15:33:23;5.40;99.90
9998;DHT22;5038;53.064;8.624;2023-02-26T15:35:54;5.40;99.90
9998;DHT22;5038;53.064;8.624;2023-02-26T15:38:23;5.40;99.90
9998;DHT22;5038;53.064;8.624;2023-02-26T15:40:53;5.40;99.90
9998;DHT22;5038;53.064;8.624;2023-02-26T15:43:25;5.40;99.90
9998;DHT22;5038;53.064;8.624;2023-02-26T15:45:56;5.40;99.90
9998;DHT22;5038;53.064;8.624;2023-02-26T15:48:30;5.50;99.90
9998;DHT22;5038;53.064;8.624;2023-02-26T15:51:01;5.50;99.90
9998;DHT22;5038;53.064;8.624;2023-02-26T15:53:33;5.40;99.90
9998;DHT22;5038;53.064;8.624;2023-02-26T15:56:04;5.40;99.90
9998;DHT22;5038;53.064;8.624;2023-02-26T15:58:37;5.30;99.90
9998;DHT22;5038;53.064;8.624;2023-02-26T16:01:06;5.30;99.90
9998;DHT22;5038;53.064;8.624;2023-02-26T16:03:37;5.30;99.90
9998;DHT22;5038;53.064;8.624;2023-02-26T16:06:18;5.20;99.90
9998;DHT22;5038;53.064;8.624;2023-02-26T16:08:47;5.20;99.90
9998;DHT22;5038;53.064;8.624;2023-02-26T16:11:16;5.20;99.90
9998;DHT22;5038;53.064;8.624;2023-02-26T16:13:46;5.20;99.90
9998;DHT22;5038;53.064;8.624;2023-02-26T16:16:20;5.20;99.90
9998;DHT22;5038;53.064;8.624;2023-02-26T16:18:51;5.10;99.90
9998;DHT22;5038;53.064;8.624;2023-02-26T16:21:25;5.10;99.90
9998;DHT22;5038;53.064;8.624;2023-02-26T16:23:56;5.10;99.90
9998;DHT22;5038;53.064;8.624;2023-02-26T16:26:28;5.10;99.90
9998;DHT22;5038;53.064;8.624;2023-02-26T16:29:00;5.10;99.90
9998;DHT22;5038;53.064;8.624;2023-02-26T16:31:30;5.00;99.90
9998;DHT22;5038;53.064;8.624;2023-02-26T16:34:04;5.00;99.90
9998;DHT22;5038;53.064;8.624;2023-02-26T16:36:39;5.00;99.90
9998;DHT22;5038;53.064;8.624;2023-02-26T16:39:16;5.00;99.90
9998;DHT22;5038;53.064;8.624;2023-02-26T16:42:01;4.90;99.90
9998;DHT22;5038;53.064;8.624;2023-02-26T16:44:43;4.90;99.90
9998;DHT22;5038;53.064;8.624;2023-02-26T16:47:12;4.80;99.90
9998;DHT22;5038;53.064;8.624;2023-02-26T16:49:42;4.70;99.90
9998;DHT22;5038;53.064;8.624;2023-02-26T16:52:19;4.70;99.90
9998;DHT22;5038;53.064;8.624;2023-02-26T16:54:54;4.70;99.90
9998;DHT22;5038;53.064;8.624;2023-02-26T16:57:28;4.60;99.90
9998;DHT22;5038;53.064;8.624;2023-02-26T17:00:00;4.60;99.90
9998;DHT22;5038;53.064;8.624;2023-02-26T17:02:34;4.60;99.90